sensor_id;sensor_type;location;lat;lon;timestamp;pressure;altitude;pressure_sealevel;temperature;humidity
24752;BME280;27246;52.376;4.628;2023-05-27T00:01:51;102926.91;;;10.85;74.78
24752;BME280;27246;52.376;4.628;2023-05-27T00:06:53;102923.81;;;10.78;75.00
24752;BME280;27246;52.376;4.628;2023-05-27T00:11:55;102926.16;;;10.83;75.51
24752;BME280;27246;52.376;4.628;2023-05-27T00:16:57;102926.09;;;10.73;76.14
24752;BME280;27246;52.376;4.628;2023-05-27T00:21:59;102928.66;;;10.86;76.20
24752;BME280;27246;52.376;4.628;2023-05-27T00:27:00;102937.91;;;10.96;75.52
24752;BME280;27246;52.376;4.628;2023-05-27T00:32:07;102925.66;;;10.89;75.36
24752;BME280;27246;52.376;4.628;2023-05-27T00:37:09;102927.44;;;10.79;75.84
24752;BME280;27246;52.376;4.628;2023-05-27T00:42:11;102924.78;;;10.89;75.51
24752;BME280;27246;52.376;4.628;2023-05-27T00:47:14;102919.72;;;10.73;76.18
24752;BME280;27246;52.376;4.628;2023-05-27T00:52:17;102918.78;;;10.84;76.28
24752;BME280;27246;52.376;4.628;2023-05-27T00:57:19;102921.94;;;10.79;76.18
24752;BME280;27246;52.376;4.628;2023-05-27T01:02:21;102911.63;;;10.81;75.85
24752;BME280;27246;52.376;4.628;2023-05-27T01:18:07;102904.13;;;10.62;76.06
24752;BME280;27246;52.376;4.628;2023-05-27T01:23:10;102902.38;;;10.61;76.48
24752;BME280;27246;52.376;4.628;2023-05-27T01:28:12;102891.69;;;10.68;76.62
24752;BME280;27246;52.376;4.628;2023-05-27T01:33:21;102900.44;;;10.52;76.73
24752;BME280;27246;52.376;4.628;2023-05-27T01:38:29;102895.78;;;10.52;77.45
24752;BME280;27246;52.376;4.628;2023-05-27T01:43:34;102892.25;;;10.61;77.01
24752;BME280;27246;52.376;4.628;2023-05-27T01:48:36;102892.28;;;10.50;77.44
24752;BME280;27246;52.376;4.628;2023-05-27T01:53:38;102896.81;;;10.51;77.07
24752;BME280;27246;52.376;4.628;2023-05-27T01:58:40;102899.81;;;10.48;77.73
24752;BME280;27246;52.376;4.628;2023-05-27T02:03:42;102894.06;;;10.51;77.51
24752;BME280;27246;52.376;4.628;2023-05-27T02:08:43;102898.41;;;10.54;76.94
24752;BME280;27246;52.376;4.628;2023-05-27T02:13:46;102901.59;;;10.49;77.50
24752;BME280;27246;52.376;4.628;2023-05-27T02:18:48;102905.88;;;10.63;76.89
24752;BME280;27246;52.376;4.628;2023-05-27T02:23:52;102902.25;;;10.63;77.42
24752;BME280;27246;52.376;4.628;2023-05-27T02:28:54;102893.44;;;10.69;76.69
24752;BME280;27246;52.376;4.628;2023-05-27T02:33:56;102887.31;;;10.65;76.69
24752;BME280;27246;52.376;4.628;2023-05-27T02:38:59;102883.44;;;10.68;76.88
24752;BME280;27246;52.376;4.628;2023-05-27T02:44:05;102882.53;;;10.67;77.47
24752;BME280;27246;52.376;4.628;2023-05-27T02:49:07;102893.56;;;10.67;77.05
24752;BME280;27246;52.376;4.628;2023-05-27T02:54:08;102902.00;;;10.66;77.58
24752;BME280;27246;52.376;4.628;2023-05-27T02:59:10;102898.63;;;10.62;77.14
24752;BME280;27246;52.376;4.628;2023-05-27T03:04:13;102902.91;;;10.55;77.02
24752;BME280;27246;52.376;4.628;2023-05-27T03:09:15;102896.53;;;10.54;77.34
24752;BME280;27246;52.376;4.628;2023-05-27T03:14:17;102894.56;;;10.45;77.49
24752;BME280;27246;52.376;4.628;2023-05-27T03:19:19;102884.28;;;10.47;76.79
24752;BME280;27246;52.376;4.628;2023-05-27T03:24:21;102889.28;;;10.53;77.80
24752;BME280;27246;52.376;4.628;2023-05-27T03:29:23;102884.16;;;10.49;78.16
24752;BME280;27246;52.376;4.628;2023-05-27T03:34:25;102884.44;;;10.46;78.52
24752;BME280;27246;52.376;4.628;2023-05-27T03:39:28;102881.81;;;10.44;79.02
24752;BME280;27246;52.376;4.628;2023-05-27T03:44:32;102883.81;;;10.42;78.85
24752;BME280;27246;52.376;4.628;2023-05-27T03:49:34;102886.09;;;10.37;78.98
24752;BME280;27246;52.376;4.628;2023-05-27T03:54:36;102883.66;;;10.23;79.17
24752;BME280;27246;52.376;4.628;2023-05-27T03:59:38;102868.50;;;10.28;79.48
24752;BME280;27246;52.376;4.628;2023-05-27T04:04:40;102868.63;;;10.27;79.17
24752;BME280;27246;52.376;4.628;2023-05-27T04:09:42;102869.09;;;10.32;78.98
24752;BME280;27246;52.376;4.628;2023-05-27T04:14:44;102867.22;;;10.32;78.91
24752;BME280;27246;52.376;4.628;2023-05-27T04:19:48;102866.28;;;10.22;79.21
24752;BME280;27246;52.376;4.628;2023-05-27T04:24:52;102870.63;;;10.25;79.54
24752;BME280;27246;52.376;4.628;2023-05-27T04:29:54;102870.84;;;10.33;79.17
24752;BME280;27246;52.376;4.628;2023-05-27T04:34:58;102861.59;;;10.34;79.25
24752;BME280;27246;52.376;4.628;2023-05-27T04:40:04;102860.84;;;10.32;78.96
24752;BME280;27246;52.376;4.628;2023-05-27T04:45:13;102868.38;;;10.30;79.07
24752;BME280;27246;52.376;4.628;2023-05-27T04:50:15;102868.06;;;10.12;80.11
24752;BME280;27246;52.376;4.628;2023-05-27T04:55:17;102871.03;;;10.20;79.64
24752;BME280;27246;52.376;4.628;2023-05-27T05:00:18;102878.25;;;10.00;80.85
24752;BME280;27246;52.376;4.628;2023-05-27T05:05:26;102880.88;;;10.01;81.80
24752;BME280;27246;52.376;4.628;2023-05-27T05:10:29;102872.00;;;9.98;82.22
24752;BME280;27246;52.376;4.628;2023-05-27T05:15:33;102872.34;;;10.05;82.43
24752;BME280;27246;52.376;4.628;2023-05-27T05:20:36;102863.28;;;9.93;83.28
24752;BME280;27246;52.376;4.628;2023-05-27T05:25:39;102852.19;;;9.83;83.26
24752;BME280;27246;52.376;4.628;2023-05-27T05:30:42;102836.31;;;9.75;83.21
24752;BME280;27246;52.376;4.628;2023-05-27T05:35:46;102832.31;;;9.68;83.42
24752;BME280;27246;52.376;4.628;2023-05-27T05:41:00;102833.50;;;9.54;83.72
24752;BME280;27246;52.376;4.628;2023-05-27T05:46:03;102839.78;;;9.45;84.33
24752;BME280;27246;52.376;4.628;2023-05-27T05:51:05;102834.16;;;9.35;84.83
24752;BME280;27246;52.376;4.628;2023-05-27T05:56:07;102837.88;;;9.46;85.27
24752;BME280;27246;52.376;4.628;2023-05-27T06:01:10;102827.38;;;9.51;85.03
24752;BME280;27246;52.376;4.628;2023-05-27T06:06:16;102824.06;;;9.68;84.37
24752;BME280;27246;52.376;4.628;2023-05-27T06:11:38;102829.50;;;9.91;82.92
24752;BME280;27246;52.376;4.628;2023-05-27T06:16:40;102821.66;;;10.07;81.68
24752;BME280;27246;52.376;4.628;2023-05-27T06:21:45;102830.97;;;10.27;80.54
24752;BME280;27246;52.376;4.628;2023-05-27T06:26:56;102830.97;;;10.27;79.80
24752;BME280;27246;52.376;4.628;2023-05-27T06:31:59;102822.00;;;10.35;79.63
24752;BME280;27246;52.376;4.628;2023-05-27T06:37:02;102815.38;;;10.37;78.45
24752;BME280;27246;52.376;4.628;2023-05-27T06:42:04;102814.47;;;10.37;79.70
24752;BME280;27246;52.376;4.628;2023-05-27T06:47:18;102811.38;;;10.51;79.08
24752;BME280;27246;52.376;4.628;2023-05-27T06:52:24;102804.22;;;10.70;77.64
24752;BME280;27246;52.376;4.628;2023-05-27T06:57:48;102802.53;;;10.78;77.59
24752;BME280;27246;52.376;4.628;2023-05-27T07:02:56;102800.06;;;10.85;76.42
24752;BME280;27246;52.376;4.628;2023-05-27T07:07:58;102798.59;;;11.12;75.12
24752;BME280;27246;52.376;4.628;2023-05-27T07:13:03;102804.16;;;11.21;74.50
24752;BME280;27246;52.376;4.628;2023-05-27T07:18:18;102789.25;;;11.44;74.70
24752;BME280;27246;52.376;4.628;2023-05-27T07:23:22;102788.25;;;11.64;73.35
24752;BME280;27246;52.376;4.628;2023-05-27T07:28:34;102781.28;;;11.60;73.16
24752;BME280;27246;52.376;4.628;2023-05-27T07:33:47;102785.94;;;11.69;72.86
24752;BME280;27246;52.376;4.628;2023-05-27T07:38:51;102779.69;;;11.77;72.39
24752;BME280;27246;52.376;4.628;2023-05-27T07:43:53;102777.22;;;12.03;70.98
24752;BME280;27246;52.376;4.628;2023-05-27T07:48:54;102776.44;;;12.20;70.85
24752;BME280;27246;52.376;4.628;2023-05-27T07:53:57;102767.28;;;12.49;69.01
24752;BME280;27246;52.376;4.628;2023-05-27T07:59:00;102761.78;;;12.20;70.01
24752;BME280;27246;52.376;4.628;2023-05-27T08:04:02;102761.31;;;12.25;70.29
24752;BME280;27246;52.376;4.628;2023-05-27T08:09:45;102747.47;;;12.54;69.74
24752;BME280;27246;52.376;4.628;2023-05-27T08:15:19;102745.03;;;12.78;69.28
24752;BME280;27246;52.376;4.628;2023-05-27T08:20:57;102731.81;;;13.00;67.13
24752;BME280;27246;52.376;4.628;2023-05-27T08:26:17;102730.72;;;13.11;67.28
24752;BME280;27246;52.376;4.628;2023-05-27T08:31:28;102734.63;;;13.54;64.86
24752;BME280;27246;52.376;4.628;2023-05-27T08:36:33;102718.38;;;13.69;64.31
24752;BME280;27246;52.376;4.628;2023-05-27T08:41:35;102710.31;;;14.02;64.14
24752;BME280;27246;52.376;4.628;2023-05-27T08:46:39;102707.13;;;14.14;63.02
24752;BME280;27246;52.376;4.628;2023-05-27T08:51:41;102696.59;;;14.52;62.04
24752;BME280;27246;52.376;4.628;2023-05-27T08:56:46;102691.59;;;14.56;60.71
24752;BME280;27246;52.376;4.628;2023-05-27T09:01:50;102678.44;;;14.58;61.14
24752;BME280;27246;52.376;4.628;2023-05-27T09:06:53;102685.84;;;14.75;60.03
24752;BME280;27246;52.376;4.628;2023-05-27T09:11:59;102675.19;;;15.22;58.62
24752;BME280;27246;52.376;4.628;2023-05-27T09:17:06;102685.78;;;15.26;57.23
24752;BME280;27246;52.376;4.628;2023-05-27T09:22:08;102665.31;;;15.44;56.85
24752;BME280;27246;52.376;4.628;2023-05-27T09:27:11;102658.75;;;15.45;59.05
24752;BME280;27246;52.376;4.628;2023-05-27T09:32:23;102656.97;;;15.60;56.65
24752;BME280;27246;52.376;4.628;2023-05-27T09:37:29;102648.50;;;15.53;59.00
24752;BME280;27246;52.376;4.628;2023-05-27T09:43:04;102661.69;;;16.09;55.47
24752;BME280;27246;52.376;4.628;2023-05-27T09:48:06;102658.81;;;16.33;54.26
24752;BME280;27246;52.376;4.628;2023-05-27T09:53:10;102651.03;;;16.12;54.99
24752;BME280;27246;52.376;4.628;2023-05-27T09:58:13;102657.06;;;16.32;53.38
24752;BME280;27246;52.376;4.628;2023-05-27T10:03:16;102642.06;;;16.50;54.85
24752;BME280;27246;52.376;4.628;2023-05-27T10:08:19;102640.31;;;16.49;52.48
24752;BME280;27246;52.376;4.628;2023-05-27T10:13:24;102623.47;;;17.13;52.76
24752;BME280;27246;52.376;4.628;2023-05-27T10:18:29;102625.19;;;16.91;52.09
24752;BME280;27246;52.376;4.628;2023-05-27T10:23:32;102623.19;;;17.08;52.00
24752;BME280;27246;52.376;4.628;2023-05-27T10:28:39;102609.75;;;17.72;51.47
24752;BME280;27246;52.376;4.628;2023-05-27T10:33:51;102598.22;;;17.75;50.35
24752;BME280;27246;52.376;4.628;2023-05-27T10:38:58;102595.59;;;17.97;50.58
24752;BME280;27246;52.376;4.628;2023-05-27T10:44:00;102596.53;;;18.04;49.55
24752;BME280;27246;52.376;4.628;2023-05-27T10:49:55;102595.13;;;18.23;50.13
24752;BME280;27246;52.376;4.628;2023-05-27T10:54:37;102575.88;;;18.65;48.99
24752;BME280;27246;52.376;4.628;2023-05-27T10:59:50;102581.50;;;18.35;50.23
24752;BME280;27246;52.376;4.628;2023-05-27T11:04:52;102574.97;;;18.94;46.71
24752;BME280;27246;52.376;4.628;2023-05-27T11:09:54;102565.53;;;19.16;46.18
24752;BME280;27246;52.376;4.628;2023-05-27T11:14:58;102561.06;;;19.22;45.63
24752;BME280;27246;52.376;4.628;2023-05-27T11:20:00;102546.84;;;19.17;46.45
24752;BME280;27246;52.376;4.628;2023-05-27T11:25:03;102544.38;;;19.29;45.97
24752;BME280;27246;52.376;4.628;2023-05-27T11:30:08;102540.16;;;19.39;45.61
24752;BME280;27246;52.376;4.628;2023-05-27T11:35:18;102537.81;;;19.43;46.53
24752;BME280;27246;52.376;4.628;2023-05-27T11:40:20;102519.91;;;19.37;45.35
24752;BME280;27246;52.376;4.628;2023-05-27T11:45:22;102513.69;;;19.64;45.59
24752;BME280;27246;52.376;4.628;2023-05-27T11:50:24;102508.88;;;19.86;44.67
24752;BME280;27246;52.376;4.628;2023-05-27T11:55:30;102491.78;;;19.67;44.85
24752;BME280;27246;52.376;4.628;2023-05-27T12:00:32;102487.03;;;20.51;45.23
24752;BME280;27246;52.376;4.628;2023-05-27T12:05:33;102474.94;;;19.95;44.92
24752;BME280;27246;52.376;4.628;2023-05-27T12:10:36;102462.53;;;20.11;44.03
24752;BME280;27246;52.376;4.628;2023-05-27T12:15:37;102477.00;;;19.80;46.01
24752;BME280;27246;52.376;4.628;2023-05-27T12:20:39;102473.25;;;20.49;43.59
24752;BME280;27246;52.376;4.628;2023-05-27T12:25:41;102454.31;;;20.65;41.90
24752;BME280;27246;52.376;4.628;2023-05-27T12:30:43;102447.25;;;21.02;41.70
24752;BME280;27246;52.376;4.628;2023-05-27T12:35:46;102448.31;;;20.68;42.93
24752;BME280;27246;52.376;4.628;2023-05-27T12:40:48;102450.47;;;20.92;41.04
24752;BME280;27246;52.376;4.628;2023-05-27T12:45:50;102430.00;;;20.98;41.97
24752;BME280;27246;52.376;4.628;2023-05-27T12:50:54;102434.97;;;21.10;41.75
24752;BME280;27246;52.376;4.628;2023-05-27T12:55:55;102448.72;;;20.91;42.60
24752;BME280;27246;52.376;4.628;2023-05-27T13:00:58;102433.22;;;21.22;41.19
24752;BME280;27246;52.376;4.628;2023-05-27T13:06:00;102430.22;;;21.30;41.64
24752;BME280;27246;52.376;4.628;2023-05-27T13:11:02;102410.63;;;21.04;42.19
24752;BME280;27246;52.376;4.628;2023-05-27T13:16:04;102400.91;;;21.00;41.47
24752;BME280;27246;52.376;4.628;2023-05-27T13:21:06;102400.47;;;21.29;42.07
24752;BME280;27246;52.376;4.628;2023-05-27T13:26:08;102395.91;;;21.48;41.81
24752;BME280;27246;52.376;4.628;2023-05-27T13:31:10;102387.09;;;21.38;41.50
24752;BME280;27246;52.376;4.628;2023-05-27T13:36:12;102386.63;;;21.41;41.45
24752;BME280;27246;52.376;4.628;2023-05-27T13:41:14;102382.25;;;21.65;40.56
24752;BME280;27246;52.376;4.628;2023-05-27T13:46:16;102374.75;;;21.46;41.06
24752;BME280;27246;52.376;4.628;2023-05-27T13:51:18;102369.56;;;21.49;40.84
24752;BME280;27246;52.376;4.628;2023-05-27T13:56:19;102357.25;;;21.57;40.76
24752;BME280;27246;52.376;4.628;2023-05-27T14:01:23;102350.44;;;21.33;40.43
24752;BME280;27246;52.376;4.628;2023-05-27T14:06:25;102344.03;;;21.64;40.95
24752;BME280;27246;52.376;4.628;2023-05-27T14:11:27;102344.66;;;21.73;41.41
24752;BME280;27246;52.376;4.628;2023-05-27T14:16:29;102339.31;;;21.58;40.05
24752;BME280;27246;52.376;4.628;2023-05-27T14:21:31;102329.00;;;21.52;39.54
24752;BME280;27246;52.376;4.628;2023-05-27T14:26:34;102329.34;;;21.10;40.82
24752;BME280;27246;52.376;4.628;2023-05-27T14:31:37;102319.31;;;21.54;41.30
24752;BME280;27246;52.376;4.628;2023-05-27T14:36:39;102319.38;;;21.80;40.42
24752;BME280;27246;52.376;4.628;2023-05-27T14:41:40;102310.75;;;21.36;41.10
24752;BME280;27246;52.376;4.628;2023-05-27T14:46:42;102310.16;;;21.72;40.55
24752;BME280;27246;52.376;4.628;2023-05-27T14:51:44;102308.81;;;21.30;40.61
24752;BME280;27246;52.376;4.628;2023-05-27T14:56:47;102304.94;;;21.31;40.91
24752;BME280;27246;52.376;4.628;2023-05-27T15:01:49;102299.28;;;21.44;40.83
24752;BME280;27246;52.376;4.628;2023-05-27T15:06:51;102297.25;;;21.58;40.69
24752;BME280;27246;52.376;4.628;2023-05-27T15:11:52;102294.72;;;21.50;41.31
24752;BME280;27246;52.376;4.628;2023-05-27T15:16:54;102302.28;;;21.49;40.30
24752;BME280;27246;52.376;4.628;2023-05-27T15:21:57;102301.63;;;21.47;40.34
24752;BME280;27246;52.376;4.628;2023-05-27T15:26:59;102279.78;;;21.63;40.27
24752;BME280;27246;52.376;4.628;2023-05-27T15:32:02;102271.81;;;21.60;41.09
24752;BME280;27246;52.376;4.628;2023-05-27T15:37:03;102270.50;;;21.62;40.92
24752;BME280;27246;52.376;4.628;2023-05-27T15:42:05;102262.84;;;21.44;39.62
24752;BME280;27246;52.376;4.628;2023-05-27T15:47:11;102271.31;;;21.31;41.43
24752;BME280;27246;52.376;4.628;2023-05-27T15:52:13;102258.81;;;21.13;41.38
24752;BME280;27246;52.376;4.628;2023-05-27T15:57:15;102260.38;;;21.61;41.75
24752;BME280;27246;52.376;4.628;2023-05-27T16:02:17;102251.69;;;21.69;41.73
24752;BME280;27246;52.376;4.628;2023-05-27T16:07:19;102251.63;;;21.76;42.33
24752;BME280;27246;52.376;4.628;2023-05-27T16:12:21;102241.31;;;21.31;42.49
24752;BME280;27246;52.376;4.628;2023-05-27T16:17:23;102247.19;;;21.16;43.04
24752;BME280;27246;52.376;4.628;2023-05-27T16:22:30;102226.25;;;21.26;42.31
24752;BME280;27246;52.376;4.628;2023-05-27T16:27:32;102221.66;;;20.80;43.46
24752;BME280;27246;52.376;4.628;2023-05-27T16:32:34;102222.00;;;21.10;43.03
24752;BME280;27246;52.376;4.628;2023-05-27T16:37:36;102207.75;;;21.11;43.40
24752;BME280;27246;52.376;4.628;2023-05-27T16:42:40;102199.19;;;21.00;43.04
24752;BME280;27246;52.376;4.628;2023-05-27T16:47:41;102200.09;;;20.87;43.66
24752;BME280;27246;52.376;4.628;2023-05-27T16:52:43;102189.94;;;20.92;42.99
24752;BME280;27246;52.376;4.628;2023-05-27T16:57:45;102193.44;;;20.74;43.38
24752;BME280;27246;52.376;4.628;2023-05-27T17:02:46;102181.16;;;20.82;42.96
24752;BME280;27246;52.376;4.628;2023-05-27T17:07:48;102175.63;;;20.55;43.05
24752;BME280;27246;52.376;4.628;2023-05-27T17:12:50;102172.63;;;20.37;43.53
24752;BME280;27246;52.376;4.628;2023-05-27T17:17:53;102168.78;;;20.11;44.18
24752;BME280;27246;52.376;4.628;2023-05-27T17:22:55;102167.69;;;20.12;44.04
24752;BME280;27246;52.376;4.628;2023-05-27T17:27:59;102166.16;;;20.16;44.69
24752;BME280;27246;52.376;4.628;2023-05-27T17:33:01;102157.38;;;20.13;44.78
24752;BME280;27246;52.376;4.628;2023-05-27T17:38:03;102150.72;;;19.81;46.63
24752;BME280;27246;52.376;4.628;2023-05-27T17:43:05;102161.47;;;19.84;47.09
24752;BME280;27246;52.376;4.628;2023-05-27T17:48:07;102152.63;;;19.73;48.42
24752;BME280;27246;52.376;4.628;2023-05-27T17:53:12;102154.13;;;19.69;49.45
24752;BME280;27246;52.376;4.628;2023-05-27T17:58:14;102141.25;;;19.68;50.46
24752;BME280;27246;52.376;4.628;2023-05-27T18:03:16;102148.56;;;19.63;49.73
24752;BME280;27246;52.376;4.628;2023-05-27T18:08:17;102145.53;;;19.71;50.72
24752;BME280;27246;52.376;4.628;2023-05-27T18:13:19;102154.38;;;19.74;50.69
24752;BME280;27246;52.376;4.628;2023-05-27T18:18:21;102146.78;;;19.48;52.65
24752;BME280;27246;52.376;4.628;2023-05-27T18:23:22;102151.88;;;19.18;54.11
24752;BME280;27246;52.376;4.628;2023-05-27T18:28:24;102159.09;;;18.99;55.72
24752;BME280;27246;52.376;4.628;2023-05-27T18:33:30;102151.94;;;18.83;57.50
24752;BME280;27246;52.376;4.628;2023-05-27T18:38:32;102158.41;;;18.84;58.03
24752;BME280;27246;52.376;4.628;2023-05-27T18:43:36;102159.84;;;18.73;58.71
24752;BME280;27246;52.376;4.628;2023-05-27T18:48:38;102166.66;;;18.64;58.80
24752;BME280;27246;52.376;4.628;2023-05-27T18:53:39;102168.78;;;18.62;59.13
24752;BME280;27246;52.376;4.628;2023-05-27T18:58:44;102184.16;;;18.51;59.01
24752;BME280;27246;52.376;4.628;2023-05-27T19:03:46;102173.50;;;18.33;59.89
24752;BME280;27246;52.376;4.628;2023-05-27T19:08:47;102180.78;;;18.27;59.77
24752;BME280;27246;52.376;4.628;2023-05-27T19:13:49;102177.09;;;18.20;60.11
24752;BME280;27246;52.376;4.628;2023-05-27T19:18:51;102180.06;;;17.90;61.85
24752;BME280;27246;52.376;4.628;2023-05-27T19:23:54;102180.13;;;17.75;63.33
24752;BME280;27246;52.376;4.628;2023-05-27T19:28:57;102179.16;;;17.68;64.92
24752;BME280;27246;52.376;4.628;2023-05-27T19:33:59;102177.84;;;17.64;64.31
24752;BME280;27246;52.376;4.628;2023-05-27T19:39:02;102181.69;;;17.42;66.98
24752;BME280;27246;52.376;4.628;2023-05-27T19:44:04;102185.56;;;17.41;67.27
24752;BME280;27246;52.376;4.628;2023-05-27T19:49:05;102181.25;;;17.38;66.32
24752;BME280;27246;52.376;4.628;2023-05-27T19:54:07;102190.97;;;17.27;65.79
24752;BME280;27246;52.376;4.628;2023-05-27T19:59:09;102189.75;;;17.15;67.63
24752;BME280;27246;52.376;4.628;2023-05-27T20:04:13;102188.09;;;16.84;71.14
24752;BME280;27246;52.376;4.628;2023-05-27T20:09:15;102196.59;;;16.83;70.73
24752;BME280;27246;52.376;4.628;2023-05-27T20:14:17;102198.13;;;16.85;71.09
24752;BME280;27246;52.376;4.628;2023-05-27T20:19:19;102199.97;;;16.78;71.76
24752;BME280;27246;52.376;4.628;2023-05-27T20:24:20;102205.53;;;16.78;70.62
24752;BME280;27246;52.376;4.628;2023-05-27T20:29:22;102192.47;;;16.64;71.59
24752;BME280;27246;52.376;4.628;2023-05-27T20:34:24;102194.28;;;16.42;73.55
24752;BME280;27246;52.376;4.628;2023-05-27T20:39:30;102202.25;;;16.45;73.36
24752;BME280;27246;52.376;4.628;2023-05-27T20:44:33;102177.97;;;16.24;74.74
24752;BME280;27246;52.376;4.628;2023-05-27T20:49:35;102178.00;;;16.00;76.26
24752;BME280;27246;52.376;4.628;2023-05-27T20:54:36;102177.66;;;16.04;77.48
24752;BME280;27246;52.376;4.628;2023-05-27T20:59:38;102179.25;;;15.98;77.75
24752;BME280;27246;52.376;4.628;2023-05-27T21:04:41;102181.38;;;15.96;77.47
24752;BME280;27246;52.376;4.628;2023-05-27T21:09:43;102175.66;;;15.66;78.90
24752;BME280;27246;52.376;4.628;2023-05-27T21:14:46;102170.22;;;15.81;78.65
24752;BME280;27246;52.376;4.628;2023-05-27T21:19:48;102157.19;;;15.82;78.14
24752;BME280;27246;52.376;4.628;2023-05-27T21:24:51;102166.41;;;15.74;78.67
24752;BME280;27246;52.376;4.628;2023-05-27T21:29:53;102166.38;;;15.59;79.63
24752;BME280;27246;52.376;4.628;2023-05-27T21:34:55;102167.78;;;15.55;79.85
24752;BME280;27246;52.376;4.628;2023-05-27T21:39:59;102159.19;;;15.42;80.05
24752;BME280;27246;52.376;4.628;2023-05-27T21:45:01;102163.41;;;15.37;80.71
24752;BME280;27246;52.376;4.628;2023-05-27T21:50:03;102152.06;;;15.24;81.37
24752;BME280;27246;52.376;4.628;2023-05-27T21:55:05;102146.06;;;15.35;81.38
24752;BME280;27246;52.376;4.628;2023-05-27T22:00:09;102148.84;;;15.35;81.35
24752;BME280;27246;52.376;4.628;2023-05-27T22:05:17;102148.22;;;15.25;81.24
24752;BME280;27246;52.376;4.628;2023-05-27T22:10:19;102150.69;;;15.20;81.33
24752;BME280;27246;52.376;4.628;2023-05-27T22:15:22;102142.03;;;15.15;81.60
24752;BME280;27246;52.376;4.628;2023-05-27T22:20:24;102144.47;;;15.18;81.47
24752;BME280;27246;52.376;4.628;2023-05-27T22:25:27;102139.00;;;15.02;81.79
24752;BME280;27246;52.376;4.628;2023-05-27T22:30:33;102156.59;;;15.17;80.98
24752;BME280;27246;52.376;4.628;2023-05-27T22:35:34;102152.88;;;15.02;81.42
24752;BME280;27246;52.376;4.628;2023-05-27T22:40:36;102154.84;;;14.93;81.82
24752;BME280;27246;52.376;4.628;2023-05-27T22:45:38;102140.28;;;14.91;81.95
24752;BME280;27246;52.376;4.628;2023-05-27T22:50:39;102151.94;;;14.86;82.62
24752;BME280;27246;52.376;4.628;2023-05-27T22:55:41;102147.78;;;14.82;82.64
24752;BME280;27246;52.376;4.628;2023-05-27T23:00:43;102140.50;;;14.81;82.77
24752;BME280;27246;52.376;4.628;2023-05-27T23:05:45;102144.34;;;14.80;82.84
24752;BME280;27246;52.376;4.628;2023-05-27T23:10:47;102146.81;;;14.58;83.74
24752;BME280;27246;52.376;4.628;2023-05-27T23:15:48;102137.16;;;14.46;83.51
24752;BME280;27246;52.376;4.628;2023-05-27T23:20:50;102142.91;;;14.36;83.89
24752;BME280;27246;52.376;4.628;2023-05-27T23:25:52;102137.75;;;14.25;85.02
24752;BME280;27246;52.376;4.628;2023-05-27T23:30:54;102128.06;;;14.21;84.66
24752;BME280;27246;52.376;4.628;2023-05-27T23:35:57;102117.69;;;14.07;85.48
24752;BME280;27246;52.376;4.628;2023-05-27T23:40:58;102110.28;;;13.99;86.13
24752;BME280;27246;52.376;4.628;2023-05-27T23:46:00;102106.47;;;14.00;86.15
24752;BME280;27246;52.376;4.628;2023-05-27T23:51:04;102102.97;;;14.06;86.12
24752;BME280;27246;52.376;4.628;2023-05-27T23:56:05;102100.78;;;13.93;86.48
